Aérodrome :
LOGIN :

S'inscrire | Disclaimer

   EN    FR    IT 

 










Légende :    VFR   VFR Marginal   IFR   IFR Intensif   IFR Très Intensif
Visi : 
Plafond : 
>= 8 km
>= 3000ft
5 à 8 km
1000 à 3000 ft
1500m à 5 km
500 à 1000 ft
800 à 1500m
200 à 500 ft
< 800m
< 200 ft
Symboles :   Orages  Brouillard  Fortes neiges  Fortes précipitations  Vent > 20 kt
SIGMETs :   Divers  Orages  Givrage  Turbulence  Onde Orograph.  Cendres Volcan.






- Altitude de l'aérodrome : 424 ft
- Code IATA : QGY


LHPR - Györ Per

DERNIER METAR :
  • 301645Z AUTO 34015KT CAVOK 04/M10 Q1021

METARs EXPIRÉS :
  • 301615Z AUTO 34018KT CAVOK 05/M10 Q1021
  • 301545Z AUTO 35017KT CAVOK 05/M10 Q1021
  • 301415Z AUTO 33018KT 300V360 CAVOK 06/M09 Q1021

TAF TAF LHPR
Valide du 30 à 15h jusqu'au 31 à 00h UTC


301415Z 3015/3024 33018G28KT CAVOK
BECMG 3015/3018 36010KT
BECMG 3020/3023 36005KT



MET'MAP, la Météo Aéronautique d'un coup d'oeil ! - Copyright ORBIFLY Décembre 2007 - Disclaimer

ORBIFLY MET'MAP TEAM :

Programmation & Développement : Alexandra Zaïnal
Sur une idée originale de : Baudouin d'Aumeries
Assistance à la programmation : Marc-Olivier Méhu
Soutien technique & logistique : Manuel Goepfert

Contact : metmap@orbifly.com




SOURCES & CREDITS :

   NOAA